Time;durP1;ratioP1;P1;durP2;ratioP2;P2;SDS_P1;SDS_P2;PMS_P1;PMS_P2;Temp;Humidity;BMP_temperature;BMP_pressure;BME280_temperature;BME280_humidity;BME280_pressure;Samples;Min_cycle;Max_cycle;Signal;HPM_P1;HPM_P2
2021/10/27 00:01:23;;;;;;;43.00;24.10;;;;;;;6.52;66.14;101075.95;2130784;82;33755;-65
2021/10/27 00:04:25;;;;;;;44.13;24.30;;;;;;;6.46;66.33;101085.38;2117131;84;29362;-68
2021/10/27 00:07:27;;;;;;;40.98;24.50;;;;;;;6.40;66.32;101086.85;2116869;84;28221;-71
2021/10/27 00:10:29;;;;;;;37.90;23.90;;;;;;;6.36;66.36;101086.48;2116958;84;28638;-71
2021/10/27 00:13:31;;;;;;;42.93;25.12;;;;;;;6.32;66.52;101090.09;2117106;84;31800;-70
2021/10/27 00:16:33;;;;;;;41.50;25.20;;;;;;;6.27;66.60;101089.33;2116698;82;33045;-68
2021/10/27 00:19:35;;;;;;;42.27;24.98;;;;;;;6.22;66.65;101091.62;2117265;84;29354;-66
2021/10/27 00:22:38;;;;;;;40.75;24.47;;;;;;;6.16;66.66;101096.17;2116824;83;28181;-67
2021/10/27 00:25:40;;;;;;;42.50;23.92;;;;;;;6.10;66.63;101098.50;2119113;83;28824;-70
2021/10/27 00:28:42;;;;;;;44.10;24.82;;;;;;;6.03;66.64;101108.38;2123042;83;31843;-71
2021/10/27 00:31:44;;;;;;;44.73;24.98;;;;;;;5.97;66.68;101106.22;2130179;83;32932;-69
2021/10/27 00:34:45;;;;;;;40.35;23.75;;;;;;;5.89;66.69;101110.34;2130018;83;29550;-66
2021/10/27 00:37:47;;;;;;;41.15;22.37;;;;;;;5.82;66.66;101103.39;2145806;82;27595;-70
2021/10/27 00:40:49;;;;;;;42.30;23.32;;;;;;;5.76;66.68;101109.23;2148846;82;28668;-70
2021/10/27 00:43:51;;;;;;;42.25;23.83;;;;;;;5.72;66.69;101108.84;2149046;82;31892;-70
2021/10/27 00:47:06;;;;;;;47.78;26.80;;;;;;;5.67;66.74;101104.08;2149101;82;32943;-71
2021/10/27 00:50:08;;;;;;;34.70;19.82;;;;;;;5.65;66.78;101107.64;2101788;82;28471;-69
2021/10/27 00:53:10;;;;;;;47.38;26.30;;;;;;;5.61;66.84;101105.49;2133193;83;27738;-71
2021/10/27 00:56:11;;;;;;;44.38;26.75;;;;;;;5.56;66.89;101108.66;2122710;83;29789;-69
2021/10/27 00:59:13;;;;;;;50.95;28.85;;;;;;;5.50;66.83;101110.97;2122220;83;31000;-64
2021/10/27 01:02:17;;;;;;;52.17;28.75;;;;;;;5.45;67.06;101108.86;2160310;82;32943;-68
2021/10/27 01:05:20;;;;;;;50.50;30.05;;;;;;;5.39;67.03;101108.94;2158724;82;29458;-68
2021/10/27 01:08:22;;;;;;;53.48;27.65;;;;;;;5.32;67.04;101104.17;2160680;81;27673;-71
2021/10/27 01:11:23;;;;;;;52.45;28.47;;;;;;;5.26;67.19;101109.13;2161635;82;28866;-66
2021/10/27 01:14:37;;;;;;;53.10;28.12;;;;;;;5.22;67.23;101113.16;2162413;82;31011;-70
2021/10/27 01:17:39;;;;;;;52.50;26.68;;;;;;;5.16;67.29;101103.06;2163266;82;33826;-70
2021/10/27 01:20:41;;;;;;;57.10;29.48;;;;;;;5.12;67.32;101104.47;2163769;81;29357;-65
2021/10/27 01:23:43;;;;;;;48.68;28.30;;;;;;;5.09;67.44;101110.67;2163876;81;27735;-71
2021/10/27 01:26:48;;;;;;;55.45;28.75;;;;;;;5.06;67.47;101108.06;2163629;82;28845;-65
2021/10/27 01:29:51;;;;;;;63.48;33.28;;;;;;;5.04;67.44;101107.66;2162698;81;31592;-71
2021/10/27 01:32:53;;;;;;;68.80;34.10;;;;;;;5.00;67.56;101107.70;2161508;82;33786;-72
2021/10/27 01:35:54;;;;;;;67.15;34.65;;;;;;;4.96;67.62;101110.42;2161335;82;29446;-63
2021/10/27 01:38:56;;;;;;;72.12;38.02;;;;;;;4.93;67.68;101106.47;2161876;82;27635;-70
2021/10/27 01:42:00;;;;;;;67.47;35.05;;;;;;;4.88;67.92;101115.83;2162143;81;29649;-70
2021/10/27 01:45:03;;;;;;;64.97;34.00;;;;;;;4.83;67.77;101103.95;2163824;81;31104;-71
2021/10/27 01:48:07;;;;;;;75.05;38.42;;;;;;;4.81;67.81;101104.41;2163514;81;33127;-72
2021/10/27 01:51:08;;;;;;;74.95;38.78;;;;;;;4.77;67.93;101111.12;2163577;81;29371;-71
2021/10/27 01:54:10;;;;;;;82.37;42.35;;;;;;;4.75;68.07;101106.27;2162035;81;27712;-69
2021/10/27 01:57:12;;;;;;;78.80;39.60;;;;;;;4.75;68.13;101106.27;2161443;82;29516;-72
2021/10/27 02:00:15;;;;;;;96.85;50.40;;;;;;;4.74;68.34;101111.16;2161704;82;31818;-71
2021/10/27 02:03:17;;;;;;;85.90;43.90;;;;;;;4.72;68.45;101115.13;2162632;82;32968;-69
2021/10/27 02:06:18;;;;;;;102.32;55.90;;;;;;;4.70;68.40;101112.97;2163904;81;29489;-68
2021/10/27 02:09:20;;;;;;;94.28;52.85;;;;;;;4.66;68.54;101112.57;2163811;80;27708;-64
2021/10/27 02:12:22;;;;;;;90.40;51.30;;;;;;;4.63;68.49;101112.60;2163309;81;29488;-65
2021/10/27 02:15:24;;;;;;;79.32;43.75;;;;;;;4.60;68.56;101112.20;2161637;81;31853;-64
2021/10/27 02:18:25;;;;;;;65.52;37.63;;;;;;;4.57;68.60;101114.88;2161716;82;32966;-67
2021/10/27 02:21:27;;;;;;;71.62;39.63;;;;;;;4.56;68.73;101115.78;2161827;82;29357;-64
2021/10/27 02:24:29;;;;;;;72.62;38.48;;;;;;;4.55;68.76;101122.84;2161895;82;27712;-63
2021/10/27 02:27:31;;;;;;;73.75;38.28;;;;;;;4.56;68.98;101119.76;2161754;82;28628;-67
2021/10/27 02:30:34;;;;;;;66.28;38.83;;;;;;;4.55;68.99;101109.58;2163681;81;31163;-64
2021/10/27 02:33:35;;;;;;;68.50;38.65;;;;;;;4.55;69.08;101115.34;2163650;81;32954;-70
2021/10/27 02:36:37;;;;;;;70.78;37.38;;;;;;;4.52;69.03;101112.30;2163737;82;29329;-66
2021/10/27 02:39:39;;;;;;;70.40;37.65;;;;;;;4.49;68.97;101116.30;2163780;81;27550;-64
2021/10/27 02:42:41;;;;;;;78.20;40.25;;;;;;;4.47;68.87;101115.44;2161974;81;29313;-67
2021/10/27 02:45:45;;;;;;;69.77;38.13;;;;;;;4.43;68.86;101108.86;2161693;81;31070;-67
2021/10/27 02:48:47;;;;;;;72.00;38.05;;;;;;;4.38;68.82;101112.44;2161394;82;33060;-62
2021/10/27 02:51:51;;;;;;;79.97;37.35;;;;;;;4.34;68.76;101110.70;2163088;82;30243;-66
2021/10/27 02:54:52;;;;;;;71.55;38.88;;;;;;;4.31;68.87;101120.02;2163744;82;27676;-62
2021/10/27 02:57:54;;;;;;;69.10;39.08;;;;;;;4.29;68.95;101122.26;2163634;82;29444;-69
2021/10/27 03:00:57;;;;;;;72.08;37.20;;;;;;;4.25;68.96;101114.80;2163005;81;30991;-67
2021/10/27 03:04:00;;;;;;;71.45;38.75;;;;;;;4.24;69.00;101121.85;2161794;81;33164;-72
2021/10/27 03:07:03;;;;;;;76.97;40.83;;;;;;;4.24;68.97;101120.98;2161788;82;29314;-71
2021/10/27 03:10:06;;;;;;;81.80;43.15;;;;;;;4.24;68.93;101117.01;2161989;82;28155;-69
2021/10/27 03:13:08;;;;;;;78.67;41.28;;;;;;;4.22;69.29;101118.33;2163356;82;29478;-71
2021/10/27 03:16:09;;;;;;;79.87;43.75;;;;;;;4.23;69.20;101120.55;2174631;80;31222;-71
2021/10/27 03:19:11;;;;;;;74.75;40.35;;;;;;;4.21;69.22;101127.64;2203394;80;33315;-71
2021/10/27 03:22:13;;;;;;;80.45;43.68;;;;;;;4.20;69.10;101125.88;2201833;80;29469;-69
2021/10/27 03:25:15;;;;;;;82.15;44.73;;;;;;;4.18;69.09;101132.54;2201921;80;27631;-72
2021/10/27 03:28:17;;;;;;;87.08;44.95;;;;;;;4.14;69.09;101131.27;2201684;80;29658;-74
2021/10/27 03:31:19;;;;;;;94.28;48.28;;;;;;;4.10;69.08;101137.02;2203090;80;31899;-73
2021/10/27 03:34:21;;;;;;;86.63;46.92;;;;;;;4.06;69.07;101136.18;2203516;80;33209;-73
2021/10/27 03:37:23;;;;;;;85.50;45.95;;;;;;;4.02;69.14;101132.25;2203830;80;29394;-73
2021/10/27 03:40:25;;;;;;;84.55;43.80;;;;;;;3.97;69.18;101143.34;2203271;80;27710;-73
2021/10/27 03:43:27;;;;;;;85.42;44.10;;;;;;;3.94;69.18;101146.91;2201737;80;29480;-72
2021/10/27 03:46:28;;;;;;;79.97;43.60;;;;;;;3.94;69.22;101148.22;2201723;80;31042;-69
2021/10/27 03:49:30;;;;;;;81.87;45.40;;;;;;;3.93;69.24;101138.52;2201401;80;33210;-70
2021/10/27 03:52:32;;;;;;;80.07;45.33;;;;;;;3.92;69.24;101127.47;2203858;80;29324;-70
2021/10/27 03:55:34;;;;;;;81.25;42.30;;;;;;;3.93;69.30;101137.19;2172816;81;27680;-73
2021/10/27 03:58:36;;;;;;;83.52;44.53;;;;;;;3.93;69.27;101136.73;2169354;82;28928;-71
2021/10/27 04:01:38;;;;;;;71.85;40.05;;;;;;;3.92;69.26;101134.97;2169266;82;31002;-73
2021/10/27 04:04:40;;;;;;;75.52;44.40;;;;;;;3.92;69.20;101142.05;2169270;82;32944;-74
2021/10/27 04:07:42;;;;;;;81.22;43.80;;;;;;;3.89;69.30;101141.61;2168387;82;30103;-74
2021/10/27 04:10:45;;;;;;;76.30;43.52;;;;;;;3.84;69.29;101137.25;2156533;82;27654;-73
2021/10/27 04:13:47;;;;;;;73.20;42.43;;;;;;;3.79;69.39;101135.97;2172181;82;28684;-71
2021/10/27 04:16:49;;;;;;;73.75;40.00;;;;;;;3.75;69.34;101139.52;2150612;82;31800;-68
2021/10/27 04:19:51;;;;;;;73.45;38.05;;;;;;;3.71;69.41;101136.02;2149573;82;33794;-74
2021/10/27 04:22:52;;;;;;;77.87;44.18;;;;;;;3.69;69.41;101137.80;2159350;82;30081;-72
2021/10/27 04:25:54;;;;;;;82.35;46.13;;;;;;;3.68;69.49;101141.34;2159554;82;27598;-73
2021/10/27 04:28:56;;;;;;;84.55;47.75;;;;;;;3.70;69.55;101145.33;2151748;82;29444;-71
2021/10/27 04:31:58;;;;;;;95.07;51.08;;;;;;;3.71;69.68;101143.98;2167577;81;31008;-71
2021/10/27 04:35:00;;;;;;;89.58;49.73;;;;;;;3.72;69.65;101158.98;2159322;82;34020;-67
2021/10/27 04:38:02;;;;;;;89.83;49.70;;;;;;;3.73;69.60;101155.87;2159126;82;29354;-73
2021/10/27 04:41:04;;;;;;;86.47;50.80;;;;;;;3.72;69.62;101152.83;2159370;82;27689;-68
2021/10/27 04:44:05;;;;;;;84.62;47.95;;;;;;;3.70;69.66;101149.30;2159310;82;29732;-71
2021/10/27 04:47:08;;;;;;;85.80;48.98;;;;;;;3.67;69.60;101154.16;2159368;82;31042;-68
2021/10/27 04:50:10;;;;;;;82.78;46.88;;;;;;;3.65;69.53;101154.61;2147412;82;33122;-72
2021/10/27 04:53:18;;;;;;;91.65;49.10;;;;;;;3.61;69.61;101151.11;2133243;83;30124;-70
2021/10/27 04:56:20;;;;;;;79.75;43.28;;;;;;;3.57;69.60;101144.53;2133345;83;27687;-72
2021/10/27 04:59:22;;;;;;;80.15;42.40;;;;;;;3.54;69.71;101137.49;2137979;82;29454;-73
2021/10/27 05:02:24;;;;;;;75.37;44.18;;;;;;;3.54;69.72;101139.24;2159224;82;31011;-73
2021/10/27 05:05:27;;;;;;;83.35;47.58;;;;;;;3.55;69.72;101142.33;2159270;82;33729;-73
2021/10/27 05:08:31;;;;;;;84.45;48.40;;;;;;;3.55;69.81;101137.93;2159487;82;29491;-72
2021/10/27 05:11:33;;;;;;;122.35;64.12;;;;;;;3.57;69.87;101141.87;2159572;81;27673;-72
2021/10/27 05:14:36;;;;;;;133.90;66.37;;;;;;;3.57;70.04;101137.91;2157681;82;28642;-70
2021/10/27 05:17:38;;;;;;;166.62;80.12;;;;;;;3.59;70.02;101149.37;2144864;82;31020;-71
2021/10/27 05:20:40;;;;;;;166.57;78.95;;;;;;;3.58;69.99;101152.45;2168788;81;33784;-72
2021/10/27 05:23:41;;;;;;;173.50;83.25;;;;;;;3.58;70.12;101154.23;2168544;82;30113;-73
2021/10/27 05:26:43;;;;;;;169.30;83.80;;;;;;;3.60;70.14;101152.46;2168234;81;27633;-65
2021/10/27 05:29:45;;;;;;;160.22;78.12;;;;;;;3.59;70.15;101150.70;2171484;81;28947;-70
2021/10/27 05:32:47;;;;;;;165.15;76.53;;;;;;;3.60;70.19;101149.34;2175434;81;32096;-72
2021/10/27 05:35:49;;;;;;;165.03;81.35;;;;;;;3.61;70.13;101152.90;2175432;81;33811;-71
2021/10/27 05:38:50;;;;;;;168.37;85.75;;;;;;;3.64;70.14;101153.74;2170717;81;28758;-72
2021/10/27 05:41:53;;;;;;;173.35;88.62;;;;;;;3.68;70.16;101147.97;2168666;81;27732;-71
2021/10/27 05:44:58;;;;;;;157.72;81.20;;;;;;;3.72;70.20;101152.36;2168439;81;28694;-71
2021/10/27 05:48:00;;;;;;;142.68;73.57;;;;;;;3.77;70.20;101153.65;2171179;81;31040;-72
2021/10/27 05:57:39;;;;;;;144.80;74.70;;;;;;;3.85;70.42;101155.81;2175327;81;27595;-64
2021/10/27 06:00:43;;;;;;;118.85;68.78;;;;;;;3.91;70.47;101164.15;2175315;81;28644;-65
2021/10/27 06:03:46;;;;;;;114.80;66.72;;;;;;;3.94;70.47;101167.65;2172095;80;31651;-65
2021/10/27 06:06:48;;;;;;;110.08;59.60;;;;;;;4.01;70.52;101172.91;2177870;80;33009;-67
2021/10/27 06:09:50;;;;;;;106.27;61.90;;;;;;;4.09;70.64;101176.36;2219306;79;30066;-64
2021/10/27 06:13:05;;;;;;;122.55;64.27;;;;;;;4.20;70.73;101178.49;2224247;79;27683;-64
2021/10/27 06:16:07;;;;;;;93.95;55.50;;;;;;;4.33;70.86;101169.95;2224029;80;30536;-64
2021/10/27 06:19:08;;;;;;;112.22;61.18;;;;;;;4.47;70.92;101172.48;2205526;80;30980;-65
2021/10/27 06:22:11;;;;;;;101.55;57.45;;;;;;;4.61;70.97;101178.98;2211954;80;32991;-66
2021/10/27 06:25:13;;;;;;;95.35;54.85;;;;;;;4.71;70.92;101177.11;2196740;80;30328;-63
2021/10/27 06:28:21;;;;;;;88.95;52.15;;;;;;;4.84;71.04;101182.70;2214896;80;27530;-67
2021/10/27 06:31:24;;;;;;;96.25;51.13;;;;;;;4.99;71.02;101185.60;2193146;79;28665;-65
2021/10/27 06:34:41;;;;;;;88.52;50.08;;;;;;;5.14;71.03;101188.53;2161353;82;31485;-70
2021/10/27 06:37:59;;;;;;;86.30;48.65;;;;;;;5.30;71.04;101183.88;2158619;82;33688;-65
2021/10/27 06:47:30;;;;;;;76.40;41.92;;;;;;;5.90;70.95;101191.44;2168718;82;29072;-65
2021/10/27 06:50:32;;;;;;;57.55;35.85;;;;;;;6.08;71.32;101187.62;2168399;80;32237;-68
2021/10/27 06:53:34;;;;;;;51.73;32.53;;;;;;;6.27;71.63;101187.78;2160923;80;34126;-64
2021/10/27 06:56:36;;;;;;;49.40;29.52;;;;;;;6.44;71.74;101191.03;2158316;81;30493;-66
2021/10/27 06:59:41;;;;;;;55.17;29.25;;;;;;;6.65;71.98;101199.50;2159261;81;27595;-69
2021/10/27 07:03:08;;;;;;;40.95;26.90;;;;;;;6.88;72.01;101207.05;2158504;81;28438;-65
2021/10/27 07:06:36;;;;;;;51.35;28.05;;;;;;;7.17;72.04;101201.60;2156054;81;32118;-65
2021/10/27 07:15:58;;;;;;;52.08;30.10;;;;;;;8.29;71.59;101193.69;2157573;81;27642;-64
2021/10/27 07:19:00;;;;;;;53.50;31.90;;;;;;;8.73;71.39;101197.47;2171452;81;29845;-63
2021/10/27 07:22:02;;;;;;;46.08;30.60;;;;;;;9.12;71.04;101196.80;2175935;81;32083;-64
2021/10/27 07:25:06;;;;;;;49.05;29.85;;;;;;;9.52;70.67;101185.80;2175931;81;33717;-63
2021/10/27 07:28:08;;;;;;;44.35;28.10;;;;;;;9.86;70.27;101186.08;2175944;81;29538;-65
2021/10/27 07:31:14;;;;;;;44.95;28.47;;;;;;;10.21;69.86;101191.20;2175945;80;27703;-65
2021/10/27 07:34:15;;;;;;;45.67;27.70;;;;;;;10.58;69.62;101188.16;2175607;81;28643;-63
2021/10/27 07:40:41;;;;;;;49.25;28.15;;;;;;;11.36;68.77;101175.91;2195612;80;34233;-63
2021/10/27 07:43:43;;;;;;;45.00;26.97;;;;;;;11.70;68.04;101183.98;2198604;80;30732;-69
2021/10/27 07:46:46;;;;;;;40.40;25.10;;;;;;;11.98;67.88;101190.93;2199669;80;27625;-67
2021/10/27 07:49:48;;;;;;;37.88;23.62;;;;;;;12.30;67.60;101190.08;2198502;80;29530;-63
2021/10/27 07:52:50;;;;;;;34.90;23.02;;;;;;;12.58;67.21;101192.91;2199012;81;32232;-62
2021/10/27 07:55:52;;;;;;;31.97;22.10;;;;;;;12.83;66.81;101190.47;2198980;80;34134;-63
2021/10/27 07:58:54;;;;;;;29.87;20.60;;;;;;;13.07;66.34;101188.02;2194020;81;29785;-63
2021/10/27 08:01:56;;;;;;;27.35;18.80;;;;;;;13.27;66.07;101190.27;2172705;81;27736;-63
2021/10/27 08:04:58;;;;;;;35.92;19.70;;;;;;;13.47;65.64;101195.22;2172509;81;29792;-64
2021/10/27 08:07:59;;;;;;;30.57;19.48;;;;;;;13.63;65.18;101197.59;2172195;81;32404;-65
2021/10/27 08:11:01;;;;;;;32.40;18.67;;;;;;;13.72;64.83;101198.96;2196484;80;33297;-65
2021/10/27 08:14:03;;;;;;;29.05;19.15;;;;;;;13.84;64.75;101196.12;2199832;80;29633;-62
2021/10/27 08:17:04;;;;;;;26.37;17.37;;;;;;;13.95;64.22;101196.48;2199788;80;28189;-62
2021/10/27 08:20:12;;;;;;;29.72;17.77;;;;;;;14.04;64.13;101195.16;2202119;80;29887;-59
2021/10/27 08:23:18;;;;;;;22.93;16.30;;;;;;;14.11;63.94;101193.03;2172621;81;31683;-62
2021/10/27 08:26:24;;;;;;;22.87;16.70;;;;;;;14.18;63.21;101198.98;2187343;80;34614;-62
2021/10/27 08:29:28;;;;;;;24.35;16.00;;;;;;;14.25;63.36;101197.23;2199586;79;30118;-63
2021/10/27 08:32:40;;;;;;;26.65;17.70;;;;;;;14.37;62.80;101193.05;2195021;81;27648;-60
2021/10/27 08:35:35;;;;;;;24.30;16.85;;;;;;;14.46;62.44;101198.91;2199016;81;29873;-60
2021/10/27 08:38:37;;;;;;;25.55;15.95;;;;;;;14.50;62.43;101200.50;2199487;80;31016;-60
2021/10/27 08:41:39;;;;;;;21.48;15.65;;;;;;;14.56;62.37;101197.50;2212980;80;34163;-60
2021/10/27 08:44:43;;;;;;;29.37;16.20;;;;;;;14.62;61.99;101197.16;2211311;80;29355;-58
2021/10/27 08:47:50;;;;;;;20.82;15.85;;;;;;;14.69;61.70;101201.33;2211316;80;27601;-60
2021/10/27 08:50:52;;;;;;;25.70;16.48;;;;;;;14.74;61.70;101203.77;2211406;80;29875;-60
2021/10/27 08:53:56;;;;;;;22.80;15.93;;;;;;;14.82;61.55;101198.83;2211151;80;31132;-61
2021/10/27 08:57:04;;;;;;;21.60;14.63;;;;;;;14.91;61.40;101204.21;2207025;80;33211;-59
2021/10/27 09:00:15;;;;;;;22.75;15.38;;;;;;;15.01;61.29;101197.39;2213583;80;29342;-61
2021/10/27 09:03:36;;;;;;;23.05;17.17;;;;;;;15.05;60.61;101189.98;2201149;78;28237;-60
2021/10/27 09:06:33;;;;;;;24.98;14.85;;;;;;;15.12;60.70;101183.77;2209133;80;29818;-59
2021/10/27 09:36:37;;;;;;;18.00;12.63;;;;;;;15.67;59.36;101199.22;2081143;85;27717;-61
2021/10/27 09:39:57;;;;;;;21.27;13.53;;;;;;;15.69;58.88;101196.81;2041000;86;29912;-58
2021/10/27 09:46:41;;;;;;;17.82;11.53;;;;;;;15.72;58.66;101202.05;2068018;85;34160;-59
2021/10/27 10:05:59;;;;;;;16.40;10.60;;;;;;;16.24;57.93;101183.80;2065500;86;30750;-49
2021/10/27 10:09:03;;;;;;;17.25;10.55;;;;;;;16.37;57.69;101187.50;2070440;85;27718;-53
2021/10/27 10:12:06;;;;;;;15.15;9.93;;;;;;;16.45;56.98;101190.24;2055842;85;29793;-61
2021/10/27 10:15:10;;;;;;;15.32;9.95;;;;;;;16.48;57.05;101194.09;2057318;85;31928;-55
2021/10/27 10:18:12;;;;;;;14.58;10.28;;;;;;;16.55;56.97;101187.36;2074361;85;33016;-54
2021/10/27 10:21:14;;;;;;;15.55;9.20;;;;;;;16.63;56.99;101192.30;2067521;85;29429;-56
2021/10/27 10:24:25;;;;;;;13.58;8.73;;;;;;;16.64;56.25;101199.45;2069597;85;27803;-55
2021/10/27 10:27:38;;;;;;;13.00;7.95;;;;;;;16.65;56.11;101196.64;2067092;85;29052;-55
2021/10/27 10:30:50;;;;;;;11.15;8.40;;;;;;;16.69;56.23;101203.62;2157337;80;32179;-56
2021/10/27 10:33:48;;;;;;;13.30;8.25;;;;;;;16.74;55.73;101202.47;2174277;80;33755;-56
2021/10/27 10:36:50;;;;;;;11.28;6.85;;;;;;;16.77;55.76;101199.09;2174357;80;29439;-57
2021/10/27 10:39:54;;;;;;;14.85;7.72;;;;;;;16.79;55.57;101183.63;2183363;81;27713;-64
2021/10/27 10:43:08;;;;;;;46.10;32.58;;;;;;;16.83;55.51;101198.72;2199510;80;29027;-64
2021/10/27 10:56:57;;;;;;;9.80;7.15;;;;;;;16.92;54.94;101186.92;2172613;82;27574;-63
2021/10/27 11:00:11;;;;;;;14.25;7.45;;;;;;;16.93;54.71;101186.84;2179186;80;29061;-63
2021/10/27 11:39:07;;;;;;;8.00;5.25;;;;;;;16.84;53.26;101172.52;1998890;88;34160;-65
2021/10/27 11:42:35;;;;;;;8.53;5.00;;;;;;;16.83;53.21;101173.02;2001081;88;30542;-64
2021/10/27 11:51:55;;;;;;;12.30;6.53;;;;;;;16.90;52.67;101168.55;2037738;87;31609;-63
2021/10/27 11:54:57;;;;;;;8.98;5.83;;;;;;;16.91;52.61;101155.41;2031045;87;32968;-63
2021/10/27 11:57:59;;;;;;;9.78;5.00;;;;;;;16.91;52.27;101153.59;1987137;89;29760;-64
2021/10/27 12:01:03;;;;;;;10.82;5.05;;;;;;;16.88;52.51;101152.92;1969556;88;28046;-64
2021/10/27 12:04:09;;;;;;;9.03;4.22;;;;;;;16.83;52.01;101151.36;1977511;89;29542;-63
2021/10/27 12:10:29;;;;;;;8.75;4.92;;;;;;;16.74;51.87;101139.74;2077890;83;34133;-62
2021/10/27 12:13:30;;;;;;;9.98;5.40;;;;;;;16.72;52.31;101143.02;2121323;83;29336;-63
2021/10/27 12:19:48;;;;;;;9.50;4.53;;;;;;;16.72;52.04;101134.91;2181318;80;29866;-62
2021/10/27 12:22:58;;;;;;;6.95;4.00;;;;;;;16.74;51.91;101132.98;2174829;81;32268;-64
2021/10/27 12:26:16;;;;;;;7.10;4.10;;;;;;;16.73;52.12;101129.03;2180942;81;33983;-64
2021/10/27 12:29:29;;;;;;;7.78;3.98;;;;;;;16.71;51.76;101124.58;2132218;83;30227;-66
2021/10/27 12:32:32;;;;;;;7.40;3.95;;;;;;;16.60;51.61;101108.62;2179186;81;27738;-65
2021/10/27 12:35:35;;;;;;;8.08;4.10;;;;;;;16.65;51.63;101126.30;2179155;81;29532;-64
2021/10/27 12:38:39;;;;;;;6.58;3.95;;;;;;;16.63;51.92;101130.08;2175375;81;32301;-66
2021/10/27 12:41:45;;;;;;;4.67;3.62;;;;;;;16.63;51.86;101119.26;2179236;80;33166;-65
2021/10/27 12:44:52;;;;;;;6.58;3.83;;;;;;;16.60;51.61;101118.98;2124917;83;29348;-64
2021/10/27 12:48:01;;;;;;;7.12;3.77;;;;;;;16.58;51.81;101111.90;2105802;83;27696;-63
2021/10/27 12:51:09;;;;;;;8.75;4.78;;;;;;;16.58;51.85;101118.66;2124578;83;29041;-64
2021/10/27 12:54:11;;;;;;;7.87;3.58;;;;;;;16.58;51.83;101120.02;2178496;81;31197;-66
2021/10/27 12:57:14;;;;;;;7.80;4.08;;;;;;;16.54;51.54;101117.98;2180564;80;33854;-65
2021/10/27 13:00:33;;;;;;;7.28;3.90;;;;;;;16.50;51.75;101120.48;2180392;81;29232;-66
2021/10/27 13:03:48;;;;;;;8.25;4.80;;;;;;;16.46;51.83;101121.17;2131776;83;28515;-65
2021/10/27 13:10:23;;;;;;;12.15;4.87;;;;;;;16.36;51.86;101128.97;2171204;81;31059;-65
2021/10/27 13:13:32;;;;;;;9.88;4.75;;;;;;;16.31;51.96;101124.81;2168191;81;34319;-65
2021/10/27 13:22:54;;;;;;;10.95;5.37;;;;;;;16.15;52.02;101116.73;2163774;82;29459;-64
2021/10/27 13:32:36;;;;;;;7.83;5.42;;;;;;;15.97;52.51;101122.28;2163692;82;29413;-64
2021/10/27 13:35:37;;;;;;;10.10;6.03;;;;;;;15.92;52.53;101118.50;2164120;82;27674;-64
2021/10/27 13:38:39;;;;;;;14.43;7.42;;;;;;;15.86;52.73;101122.05;2163743;82;29837;-62
2021/10/27 13:41:44;;;;;;;12.13;7.70;;;;;;;15.63;53.12;101109.39;2164025;82;31943;-64
2021/10/27 13:45:00;;;;;;;;;;;;;;;15.63;53.12;101109.39;2166372;82;35079;-65
2021/10/27 14:07:47;;;;;;;21.93;10.13;;;;;;;15.50;53.54;101134.87;2027257;87;28265;-62
2021/10/27 14:14:13;;;;;;;16.07;9.58;;;;;;;15.43;53.69;101138.41;2020000;87;32334;-63
2021/10/27 14:40:32;;;;;;;19.25;11.35;;;;;;;14.99;54.38;101144.44;1973437;89;28027;-63
2021/10/27 15:20:12;;;;;;;45.15;23.35;;;;;;;14.12;55.93;101136.34;2199499;79;32297;-61
2021/10/27 15:36:23;;;;;;;36.15;20.00;;;;;;;13.58;56.63;101140.84;2090092;85;32334;-65
2021/10/27 15:52:47;;;;;;;49.35;26.35;;;;;;;12.74;57.64;101130.80;2085332;85;31393;-63
2021/10/27 15:55:49;;;;;;;86.63;44.25;;;;;;;12.60;57.77;101135.44;2087203;85;34136;-67
2021/10/27 15:58:52;;;;;;;107.50;54.27;;;;;;;12.48;57.88;101136.00;2085259;85;30762;-63
2021/10/27 16:01:58;;;;;;;101.42;51.00;;;;;;;12.34;58.07;101141.97;2105871;79;27772;-59
2021/10/27 16:05:01;;;;;;;131.82;60.58;;;;;;;12.22;58.34;101133.10;2171040;80;29817;-68
2021/10/27 16:08:05;;;;;;;101.25;48.42;;;;;;;12.11;58.60;101130.88;2150928;81;31820;-67
2021/10/27 16:11:07;;;;;;;107.70;42.95;;;;;;;12.01;58.75;101131.73;2136232;82;33015;-66
2021/10/27 16:14:12;;;;;;;87.45;37.63;;;;;;;11.92;59.14;101130.76;2156364;82;44564;-61
2021/10/27 16:17:14;;;;;;;69.50;32.40;;;;;;;11.83;59.34;101130.19;2157914;81;27521;-65
2021/10/27 16:20:17;;;;;;;66.15;32.55;;;;;;;11.75;59.46;101128.79;2169102;81;29551;-62
2021/10/27 16:23:20;;;;;;;72.65;34.75;;;;;;;11.71;59.51;101137.41;2152344;81;31657;-62
2021/10/27 16:26:22;;;;;;;64.17;34.83;;;;;;;11.63;59.49;101139.55;2182574;81;33868;-61
2021/10/27 16:29:24;;;;;;;64.32;33.75;;;;;;;11.55;59.68;101145.23;2174307;81;29642;-64
2021/10/27 16:32:26;;;;;;;88.00;41.10;;;;;;;11.48;59.77;101151.77;2158705;81;27640;-62
2021/10/27 16:35:29;;;;;;;74.92;40.75;;;;;;;11.38;60.05;101157.50;2184254;81;29073;-62
2021/10/27 16:38:31;;;;;;;82.02;42.20;;;;;;;11.26;60.53;101151.25;2175902;81;31159;-62
2021/10/27 16:41:34;;;;;;;73.60;41.75;;;;;;;11.14;60.79;101151.28;2160112;81;32941;-62
2021/10/27 16:44:36;;;;;;;69.42;38.60;;;;;;;11.05;61.15;101158.32;2168582;81;29503;-65
2021/10/27 16:47:39;;;;;;;77.87;42.35;;;;;;;10.97;61.16;101165.80;2172953;81;28297;-63
2021/10/27 16:50:41;;;;;;;79.12;39.73;;;;;;;10.89;61.29;101172.30;2146969;82;29834;-63
2021/10/27 16:53:44;;;;;;;58.38;33.60;;;;;;;10.83;61.48;101175.67;2152567;81;30855;-62
2021/10/27 16:56:47;;;;;;;74.82;41.85;;;;;;;10.78;61.85;101179.87;2158091;82;34293;-62
2021/10/27 16:59:48;;;;;;;44.05;25.32;;;;;;;10.75;62.08;101184.89;2149649;82;30278;-67
2021/10/27 17:02:51;;;;;;;47.40;26.57;;;;;;;10.72;62.23;101187.67;2159160;81;27667;-62
2021/10/27 17:05:53;;;;;;;63.42;33.98;;;;;;;10.70;62.35;101186.85;2159264;81;30007;-67
2021/10/27 17:08:55;;;;;;;196.50;143.78;;;;;;;10.67;62.72;101188.77;2166535;79;32178;-63
2021/10/27 17:11:56;;;;;;;48.63;31.97;;;;;;;10.65;62.76;101195.52;2220653;80;33367;-65
2021/10/27 17:14:59;;;;;;;48.23;28.87;;;;;;;10.62;62.90;101195.16;2199763;79;30608;-61
2021/10/27 17:18:02;;;;;;;62.43;32.78;;;;;;;10.59;63.23;101199.77;2182684;80;27702;-63
2021/10/27 17:21:07;;;;;;;62.83;32.58;;;;;;;10.55;63.25;101196.78;2143978;82;29520;-64
2021/10/27 17:24:08;;;;;;;64.63;32.70;;;;;;;10.52;63.27;101202.23;2182030;80;31826;-63
2021/10/27 17:27:10;;;;;;;59.90;32.63;;;;;;;10.46;63.35;101200.65;2220451;80;33830;-63
2021/10/27 17:30:16;;;;;;;51.95;30.60;;;;;;;10.41;63.48;101201.27;2220514;80;29373;-62
2021/10/27 17:33:18;;;;;;;47.43;29.90;;;;;;;10.36;63.54;101201.39;2196443;81;27730;-60
2021/10/27 17:36:22;;;;;;;55.63;34.83;;;;;;;10.32;63.71;101207.33;2189595;80;29515;-61
2021/10/27 17:39:25;;;;;;;46.70;28.02;;;;;;;10.24;63.70;101209.86;2187413;79;32262;-62
2021/10/27 17:42:27;;;;;;;44.20;26.50;;;;;;;10.18;63.77;101215.81;2196481;79;34335;-62
2021/10/27 17:45:36;;;;;;;47.53;26.45;;;;;;;10.14;63.90;101219.99;2196595;79;29378;-63
2021/10/27 17:48:41;;;;;;;43.80;26.62;;;;;;;10.13;63.97;101215.08;2190531;79;27709;-61
2021/10/27 17:51:56;;;;;;;43.05;28.10;;;;;;;10.13;64.05;101216.42;2198890;79;30000;-62
2021/10/27 18:01:23;;;;;;;57.27;34.90;;;;;;;10.01;64.43;101217.69;2181935;80;30531;-60
2021/10/27 18:04:25;;;;;;;51.55;33.42;;;;;;;9.97;64.42;101226.77;2189818;79;28280;-61
2021/10/27 18:07:30;;;;;;;55.35;33.63;;;;;;;9.91;64.60;101221.60;2183849;79;28615;-62
2021/10/27 18:10:31;;;;;;;58.15;33.23;;;;;;;9.84;64.59;101218.25;2169649;80;31910;-76
2021/10/27 18:13:38;;;;;;;55.67;33.40;;;;;;;9.77;64.69;101225.19;2159601;81;33035;-70
2021/10/27 18:20:02;;;;;;;60.58;34.55;;;;;;;9.64;65.02;101229.59;2056090;85;27687;-70
2021/10/27 18:23:12;;;;;;;75.87;38.80;;;;;;;9.57;65.03;101226.67;2049966;85;29524;-62
2021/10/27 18:26:42;;;;;;;72.35;39.35;;;;;;;9.53;65.16;101223.67;2046652;85;31180;-65